createdAt,value
2019-01-22T00:00:10.383Z,-1.76
2019-01-22T00:01:20.120Z,-1.76
2019-01-22T00:02:30.224Z,-1.73
2019-01-22T00:03:39.822Z,-1.79
2019-01-22T00:04:49.938Z,-1.67
2019-01-22T00:06:03.093Z,-1.68
2019-01-22T00:07:14.048Z,-1.74
2019-01-22T00:08:25.392Z,-1.85
2019-01-22T00:09:36.344Z,-1.79
2019-01-22T00:10:46.708Z,-1.88
2019-01-22T00:11:56.921Z,-1.78
2019-01-22T00:13:06.749Z,-1.82
2019-01-22T00:14:16.586Z,-1.84
2019-01-22T00:15:26.737Z,-1.81
2019-01-22T00:16:36.846Z,-1.78
2019-01-22T00:17:46.746Z,-1.84
2019-01-22T00:18:56.973Z,-1.82
2019-01-22T00:20:07.204Z,-1.81
2019-01-22T00:21:17.295Z,-1.86
2019-01-22T00:22:27.455Z,-1.99
2019-01-22T00:23:37.553Z,-1.96
2019-01-22T00:24:47.641Z,-1.96
2019-01-22T00:25:57.258Z,-1.97
2019-01-22T00:27:07.342Z,-1.99
2019-01-22T00:28:17.495Z,-2.02
2019-01-22T00:29:27.595Z,-1.96
2019-01-22T00:30:37.442Z,-1.99
2019-01-22T00:31:47.287Z,-1.97
2019-01-22T00:32:57.365Z,-1.97
2019-01-22T00:34:06.704Z,-1.99
2019-01-22T00:35:16.880Z,-1.96
2019-01-22T00:36:26.739Z,-1.99
2019-01-22T00:37:36.845Z,-1.99
2019-01-22T00:38:46.681Z,-1.94
2019-01-22T00:39:56.783Z,-1.88
2019-01-22T00:41:08.589Z,-2
2019-01-22T00:42:18.710Z,-1.96
2019-01-22T00:43:28.591Z,-2.02
2019-01-22T00:44:38.698Z,-2.02
2019-01-22T00:45:48.374Z,-2.06
2019-01-22T00:46:58.498Z,-2.03
2019-01-22T00:48:10.773Z,-2.03
2019-01-22T00:49:21.928Z,-2.06
2019-01-22T00:50:33.053Z,-2.17
2019-01-22T00:51:43.274Z,-2.12
2019-01-22T00:52:53.535Z,-2.07
2019-01-22T00:54:03.709Z,-2.05
2019-01-22T00:55:13.358Z,-2.07
2019-01-22T00:56:23.472Z,-2.07
2019-01-22T00:57:33.595Z,-2.09
2019-01-22T00:58:43.684Z,-2.07
2019-01-22T00:59:53.814Z,-2.06
2019-01-22T01:01:03.666Z,-2.03
2019-01-22T01:02:13.258Z,-2.03
2019-01-22T01:03:23.127Z,-2.03
2019-01-22T01:04:32.965Z,-2.06
2019-01-22T01:05:43.055Z,-2.07
2019-01-22T01:06:53.138Z,-2.03
2019-01-22T01:08:05.366Z,-1.97
2019-01-22T01:09:15.516Z,-2.02
2019-01-22T01:10:25.636Z,-2.1
2019-01-22T01:11:35.471Z,-2.09
2019-01-22T01:12:45.377Z,-2.03
2019-01-22T01:13:55.237Z,-2.12
2019-01-22T01:15:06.934Z,-2.1
2019-01-22T01:16:16.785Z,-2.1
2019-01-22T01:17:26.879Z,-2.14
2019-01-22T01:18:37.036Z,-2.05
2019-01-22T01:19:47.131Z,-2.12
2019-01-22T01:20:56.997Z,-2.05
2019-01-22T01:22:06.835Z,-2.05
2019-01-22T01:23:21.719Z,-2.12
2019-01-22T01:24:31.567Z,-1.99
2019-01-22T01:25:41.670Z,-2.07
2019-01-22T01:26:52.117Z,-2.14
2019-01-22T01:28:05.591Z,-2.07
2019-01-22T01:29:16.994Z,-2.02
2019-01-22T01:30:28.102Z,-2.09
2019-01-22T01:31:38.391Z,-2.02
2019-01-22T01:32:48.555Z,-2.06
2019-01-22T01:33:58.748Z,-2.05
2019-01-22T01:35:09.371Z,-2.06
2019-01-22T01:36:19.468Z,-2.09
2019-01-22T01:37:29.318Z,-2.07
2019-01-22T01:38:39.400Z,-2.1
2019-01-22T01:39:49.208Z,-2.15
2019-01-22T01:40:59.322Z,-2.05
2019-01-22T01:42:09.490Z,-2.1
2019-01-22T01:43:19.328Z,-2.17
2019-01-22T01:44:29.447Z,-2.15
2019-01-22T01:45:39.546Z,-2.23
2019-01-22T01:46:49.648Z,-2.28
2019-01-22T01:47:59.479Z,-2.28
2019-01-22T01:49:10.914Z,-2.3
2019-01-22T01:50:21.017Z,-2.28
2019-01-22T01:51:30.851Z,-2.3
2019-01-22T01:52:40.676Z,-2.37
2019-01-22T01:53:50.788Z,-2.32
2019-01-22T01:55:00.894Z,-2.24
2019-01-22T01:56:10.986Z,-2.25
2019-01-22T01:57:20.877Z,-2.27
2019-01-22T01:58:30.707Z,-2.4
2019-01-22T01:59:40.845Z,-2.3
2019-01-22T02:00:50.956Z,-2.42
2019-01-22T02:02:01.937Z,-2.4
2019-01-22T02:03:12.049Z,-2.43
2019-01-22T02:04:22.155Z,-2.42
2019-01-22T02:05:33.291Z,-2.36
2019-01-22T02:06:43.438Z,-2.42
2019-01-22T02:07:53.545Z,-2.49
2019-01-22T02:09:05.449Z,-2.46
2019-01-22T02:10:15.859Z,-2.39
2019-01-22T02:11:26.638Z,-2.49
2019-01-22T02:12:37.617Z,-2.46
2019-01-22T02:13:48.658Z,-2.44
2019-01-22T02:14:59.034Z,-2.47
2019-01-22T02:16:10.316Z,-2.4
2019-01-22T02:17:20.216Z,-2.46
2019-01-22T02:18:30.061Z,-2.49
2019-01-22T02:19:40.171Z,-2.47
2019-01-22T02:20:49.747Z,-2.44
2019-01-22T02:21:59.831Z,-2.5
2019-01-22T02:23:09.467Z,-2.55
2019-01-22T02:24:19.575Z,-2.5
2019-01-22T02:25:29.669Z,-2.57
2019-01-22T02:26:39.782Z,-2.49
2019-01-22T02:27:49.864Z,-2.49
2019-01-22T02:28:59.952Z,-2.57
2019-01-22T02:30:10.721Z,-2.53
2019-01-22T02:31:20.827Z,-2.5
2019-01-22T02:32:32.653Z,-2.46
2019-01-22T02:33:42.756Z,-2.5
2019-01-22T02:34:52.870Z,-2.46
2019-01-22T02:36:03.266Z,-2.47
2019-01-22T02:37:13.090Z,-2.44
2019-01-22T02:38:23.179Z,-2.43
2019-01-22T02:39:32.763Z,-2.44
2019-01-22T02:40:42.898Z,-2.43
2019-01-22T02:41:53.042Z,-2.47
2019-01-22T02:43:03.147Z,-2.47
2019-01-22T02:44:13.047Z,-2.53
2019-01-22T02:45:23.130Z,-2.49
2019-01-22T02:46:33.225Z,-2.64
2019-01-22T02:47:43.327Z,-2.61
2019-01-22T02:48:53.506Z,-2.61
2019-01-22T02:50:06.827Z,-2.64
2019-01-22T02:51:17.339Z,-2.6
2019-01-22T02:52:27.715Z,-2.65
2019-01-22T02:53:43.652Z,-2.7
2019-01-22T02:54:53.490Z,-2.65
2019-01-22T02:56:03.571Z,-2.78
2019-01-22T02:57:13.663Z,-2.68
2019-01-22T02:58:23.592Z,-2.67
2019-01-22T02:59:33.735Z,-2.78
2019-01-22T03:00:43.564Z,-2.67
2019-01-22T03:01:53.638Z,-2.73
2019-01-22T03:03:03.497Z,-2.72
